ポンタ・デルガダ の空港の天気 - METARとTAF

ポンタ・デルガダ空港 ( LPPD / PDL ) - ポルトガル ポンタ・デルガダ (サンミゲル島)
飛行場実況気象(Metar)
観測時間02/01 14:00 AZOT (02/01 15:00 UTC)
風向・風速東南東 6m/s
視程10km以上
天気現象周辺でしゅう雨
少しの雲 雲底高度 610m
全天の4割程度の雲 雲底高度 910m
気温15℃
湿度72%
気圧1028hPa
METARLPPD 011500Z 12012KT 080V140 9999 VCSH FEW020 SCT030 15/10 Q1028
過去の天気等 Google飛行場航空写真 Wunderground天気予報

過去48時間のMETAR

飛行場予報(TAF)
発表時間: 2/01 10:00 AZOT (2/01 11:00 UTC)
予報対象時間: 1日11時 AZOT ~ 2日11時 AZOT
風向・風速東北東 4m/s
視程10km以上
全天の4割程度の雲 雲底高度 610m
1日11時 AZOT ~ 1日13時 AZOT に徐々に
風向・風速東南東 5m/s
1日11時 AZOT ~ 2日5時 AZOT に一時的に
少しの雲 雲底高度 460m
全天の8割程度の雲 雲底高度 1220m
1日19時 AZOT ~ 1日21時 AZOT に徐々に
風向・風速北北東 4m/s
2日5時 AZOT ~ 2日7時 AZOT に徐々に
風向・風速東北東 4m/s
全天の8割程度の雲 雲底高度 610m
2日7時 AZOT ~ 2日11時 AZOT に 確率 30% で一時的に
視程8000m
天気現象しゅう雨
全天の8割程度の雲 雲底高度 460m
少しの塔状積雲 雲底高度 550m
TAF LPPD 011100Z 0112/0212 06007KT 9999 SCT020
BECMG 0112/0114 11010KT
TEMPO 0112/0206 FEW015 BKN040
BECMG 0120/0122 03007KT
BECMG 0206/0208 06007KT BKN020
PROB30 TEMPO 0208/0212 8000 SHRA BKN015 FEW018TCU